createdAt,value
2019-02-14T00:01:31.625Z,6.33
2019-02-14T00:04:03.723Z,6.29
2019-02-14T00:06:35.232Z,6.62
2019-02-14T00:09:06.869Z,6.74
2019-02-14T00:11:35.929Z,6.52
2019-02-14T00:14:05.462Z,6.51
2019-02-14T00:16:34.601Z,6.65
2019-02-14T00:19:04.513Z,5.75
2019-02-14T00:21:38.542Z,5.59
2019-02-14T00:24:07.741Z,5.71
2019-02-14T00:26:37.656Z,5.95
2019-02-14T00:29:06.777Z,6.29
2019-02-14T00:31:35.897Z,6.03
2019-02-14T00:34:05.441Z,6.00
2019-02-14T00:36:38.299Z,6.20
2019-02-14T00:39:08.945Z,6.44
2019-02-14T00:41:38.120Z,6.67
2019-02-14T00:44:08.465Z,6.24
2019-02-14T00:46:38.777Z,5.94
2019-02-14T00:49:09.601Z,6.45
2019-02-14T00:51:41.435Z,5.58
2019-02-14T00:54:12.685Z,5.48
2019-02-14T00:56:41.472Z,5.92
2019-02-14T00:59:10.603Z,6.23
2019-02-14T01:01:39.942Z,6.35
2019-02-14T01:04:09.673Z,6.34
2019-02-14T01:06:42.227Z,6.13
2019-02-14T01:09:13.023Z,5.64
2019-02-14T01:11:42.204Z,5.83
2019-02-14T01:14:11.406Z,5.37
2019-02-14T01:16:42.403Z,5.76
2019-02-14T01:19:11.513Z,5.59
2019-02-14T01:21:43.162Z,5.28
2019-02-14T01:24:12.255Z,5.34
2019-02-14T01:26:43.043Z,5.11
2019-02-14T01:29:15.048Z,5.31
2019-02-14T01:31:48.899Z,6.05
2019-02-14T01:34:22.098Z,6.30
2019-02-14T01:36:51.253Z,6.58
2019-02-14T01:39:24.890Z,5.83
2019-02-14T01:41:55.113Z,5.39
2019-02-14T01:44:26.685Z,5.32
2019-02-14T01:46:56.987Z,4.61
2019-02-14T01:49:26.682Z,4.28
2019-02-14T01:51:56.233Z,4.43
2019-02-14T01:54:27.019Z,4.30
2019-02-14T01:56:56.216Z,4.05
2019-02-14T01:59:25.768Z,4.12
2019-02-14T02:01:57.754Z,3.71
2019-02-14T02:04:34.153Z,3.95
2019-02-14T02:07:05.471Z,4.11
2019-02-14T02:09:34.518Z,4.00
2019-02-14T02:12:04.877Z,4.17
2019-02-14T02:14:35.792Z,4.18
2019-02-14T02:17:07.845Z,4.36
2019-02-14T02:19:36.978Z,4.64
2019-02-14T02:22:07.848Z,5.07
2019-02-14T02:24:39.886Z,4.62
2019-02-14T02:27:10.239Z,4.50
2019-02-14T02:29:41.838Z,4.44
2019-02-14T02:32:11.039Z,4.63
2019-02-14T02:34:42.796Z,5.15
2019-02-14T02:37:12.975Z,5.13
2019-02-14T02:39:42.071Z,5.03
2019-02-14T02:42:11.314Z,4.91
2019-02-14T02:44:44.606Z,5.08
2019-02-14T02:47:19.230Z,5.27
2019-02-14T02:49:49.132Z,5.20
2019-02-14T02:52:21.378Z,5.34
2019-02-14T02:54:51.570Z,4.98
2019-02-14T02:57:23.006Z,4.80
2019-02-14T02:59:56.203Z,4.98
2019-02-14T03:02:27.855Z,5.21
2019-02-14T03:04:58.086Z,5.40
2019-02-14T03:07:30.596Z,5.38
2019-02-14T03:10:02.528Z,4.65
2019-02-14T03:12:36.920Z,4.42
2019-02-14T03:15:07.929Z,4.53
2019-02-14T03:17:37.039Z,4.23
2019-02-14T03:20:08.202Z,4.24
2019-02-14T03:22:38.268Z,4.25
2019-02-14T03:25:13.745Z,4.36
2019-02-14T03:27:43.258Z,4.81
2019-02-14T03:30:18.329Z,4.83
2019-02-14T03:32:48.790Z,4.90
2019-02-14T03:35:18.729Z,4.67
2019-02-14T03:37:54.481Z,5.10
2019-02-14T03:40:26.451Z,5.52
2019-02-14T03:42:55.606Z,5.90
2019-02-14T03:45:27.693Z,5.74
2019-02-14T03:47:57.168Z,5.07
2019-02-14T03:50:32.114Z,5.24
2019-02-14T03:53:08.824Z,4.78
2019-02-14T03:55:41.448Z,4.68
2019-02-14T03:58:12.939Z,4.68
2019-02-14T04:00:42.107Z,4.43
2019-02-14T04:03:15.577Z,4.38
2019-02-14T04:05:47.583Z,4.31
2019-02-14T04:08:19.273Z,3.98
2019-02-14T04:10:50.200Z,4.35
2019-02-14T04:13:19.341Z,4.35
2019-02-14T04:15:49.428Z,3.98
2019-02-14T04:18:20.803Z,3.99
2019-02-14T04:20:49.474Z,3.96
2019-02-14T04:23:18.598Z,4.09
2019-02-14T04:25:48.078Z,3.84
2019-02-14T04:28:17.202Z,4.11
2019-02-14T04:30:51.177Z,3.74
2019-02-14T04:33:26.787Z,3.00
2019-02-14T04:35:58.643Z,3.20
2019-02-14T04:38:33.002Z,3.12
2019-02-14T04:41:03.830Z,3.20
2019-02-14T04:43:33.027Z,3.46
2019-02-14T04:46:02.495Z,3.87
2019-02-14T04:48:41.774Z,4.87
2019-02-14T04:51:13.278Z,5.60
2019-02-14T04:53:42.384Z,4.98
2019-02-14T04:56:11.801Z,4.97
2019-02-14T04:58:43.310Z,5.76
2019-02-14T05:01:18.536Z,6.34
2019-02-14T05:03:49.065Z,6.33
2019-02-14T05:06:21.900Z,5.54
2019-02-14T05:08:54.591Z,5.37
2019-02-14T05:11:23.739Z,5.34
2019-02-14T05:13:52.881Z,5.47
2019-02-14T05:16:23.266Z,4.92
2019-02-14T05:18:56.048Z,4.74
2019-02-14T05:21:25.084Z,4.58
2019-02-14T05:23:55.020Z,4.49
2019-02-14T05:26:24.165Z,4.73
2019-02-14T05:28:53.417Z,4.63
2019-02-14T05:31:22.598Z,4.45
2019-02-14T05:33:57.120Z,4.36
2019-02-14T05:36:26.441Z,4.34
2019-02-14T05:38:56.935Z,4.32
2019-02-14T05:41:26.551Z,4.56
2019-02-14T05:43:57.173Z,4.51
2019-02-14T05:46:26.744Z,4.32
2019-02-14T05:48:56.653Z,3.81
2019-02-14T05:51:26.237Z,4.15
2019-02-14T05:53:55.710Z,4.77
2019-02-14T05:56:25.186Z,4.60
2019-02-14T05:58:59.777Z,4.52
2019-02-14T06:01:29.200Z,4.20
2019-02-14T06:03:58.444Z,4.66
2019-02-14T06:06:29.159Z,4.83
2019-02-14T06:08:59.642Z,5.35
2019-02-14T06:11:29.997Z,5.56
2019-02-14T06:14:00.474Z,5.64
2019-02-14T06:16:30.120Z,5.74
2019-02-14T06:19:00.988Z,5.44
2019-02-14T06:21:30.454Z,5.88
2019-02-14T06:23:59.772Z,5.78
2019-02-14T06:26:34.998Z,5.69
2019-02-14T06:29:04.462Z,5.23
2019-02-14T06:31:34.848Z,4.86
2019-02-14T06:34:05.255Z,4.55
2019-02-14T06:36:34.920Z,5.02
2019-02-14T06:39:05.717Z,5.33
2019-02-14T06:41:37.461Z,5.23
2019-02-14T06:44:09.559Z,5.21
2019-02-14T06:46:40.178Z,4.74
2019-02-14T06:49:11.255Z,4.39
2019-02-14T06:51:40.600Z,4.52
2019-02-14T06:54:09.775Z,4.07
2019-02-14T06:56:41.819Z,4.10
2019-02-14T06:59:10.992Z,3.72
2019-02-14T07:01:42.533Z,3.61
2019-02-14T07:04:16.672Z,3.71
2019-02-14T07:06:46.144Z,4.27
2019-02-14T07:09:20.906Z,4.75
2019-02-14T07:11:51.797Z,3.20
2019-02-14T07:14:23.105Z,5.75
2019-02-14T07:16:53.100Z,5.99
2019-02-14T07:19:23.885Z,5.54
2019-02-14T07:21:58.986Z,5.58
2019-02-14T07:24:28.151Z,4.66
2019-02-14T07:26:59.183Z,4.30
2019-02-14T07:29:28.560Z,4.49
2019-02-14T07:32:05.492Z,4.34
2019-02-14T07:34:34.602Z,5.26
2019-02-14T07:37:13.439Z,5.94
2019-02-14T07:39:42.566Z,6.02
2019-02-14T07:42:13.063Z,5.85
2019-02-14T07:44:42.506Z,6.21
2019-02-14T07:47:13.043Z,6.16
2019-02-14T07:49:45.429Z,6.97
2019-02-14T07:52:14.660Z,6.66
2019-02-14T07:54:43.789Z,6.51
2019-02-14T07:57:13.242Z,6.18
2019-02-14T07:59:43.160Z,6.16
2019-02-14T08:02:13.936Z,6.12
2019-02-14T08:04:43.297Z,6.35
2019-02-14T08:07:12.407Z,6.38
2019-02-14T08:09:41.557Z,6.10
2019-02-14T08:12:12.058Z,6.23
2019-02-14T08:14:45.984Z,6.38
2019-02-14T08:17:19.910Z,6.28
2019-02-14T08:19:54.578Z,5.53
2019-02-14T08:22:24.200Z,5.50
2019-02-14T08:24:56.314Z,6.00
2019-02-14T08:27:28.135Z,5.83
2019-02-14T08:30:00.700Z,5.82
2019-02-14T08:32:29.869Z,5.67
2019-02-14T08:35:01.030Z,5.89
2019-02-14T08:37:30.126Z,5.83
2019-02-14T08:39:59.246Z,6.44
2019-02-14T08:42:28.827Z,6.59
2019-02-14T08:44:58.088Z,7.01
2019-02-14T08:47:27.209Z,7.40
2019-02-14T08:49:56.340Z,7.48
2019-02-14T08:52:26.714Z,8.49
2019-02-14T08:55:01.206Z,8.83
2019-02-14T08:57:33.165Z,7.02
2019-02-14T09:00:07.568Z,6.91
2019-02-14T09:02:37.018Z,6.74
2019-02-14T09:05:12.119Z,7.10
2019-02-14T09:07:41.457Z,7.67
2019-02-14T09:10:12.458Z,8.14
2019-02-14T09:12:41.597Z,7.91
2019-02-14T09:15:11.640Z,8.00
2019-02-14T09:17:47.808Z,7.53
2019-02-14T09:20:23.242Z,7.40
2019-02-14T09:22:53.494Z,7.74
2019-02-14T09:25:23.045Z,7.50
2019-02-14T09:27:52.298Z,7.67
2019-02-14T09:30:23.978Z,8.03
2019-02-14T09:32:56.196Z,8.79
2019-02-14T09:35:27.146Z,8.16
2019-02-14T09:38:03.052Z,8.52
2019-02-14T09:40:40.049Z,9.84
2019-02-14T09:43:16.771Z,9.25
2019-02-14T09:45:47.658Z,9.20
2019-02-14T09:48:22.843Z,9.16
2019-02-14T09:50:53.243Z,10.07
2019-02-14T09:53:26.905Z,10.38
2019-02-14T09:56:06.373Z,9.75
2019-02-14T09:58:33.032Z,9.94
2019-02-14T10:01:24.364Z,9.31
2019-02-14T10:03:39.109Z,10.19
2019-02-14T10:06:08.307Z,9.92
2019-02-14T10:08:39.073Z,10.34
2019-02-14T10:11:14.502Z,10.95
2019-02-14T10:13:43.791Z,10.21
2019-02-14T10:16:13.935Z,10.24
2019-02-14T10:18:52.262Z,9.76
2019-02-14T10:21:24.331Z,10.09
2019-02-14T10:23:53.689Z,9.91
2019-02-14T10:26:24.013Z,10.31
2019-02-14T10:28:57.284Z,10.58
2019-02-14T10:31:31.346Z,11.04
2019-02-14T10:34:06.875Z,10.95
2019-02-14T10:36:37.157Z,11.23
2019-02-14T10:39:07.994Z,11.27
2019-02-14T10:41:37.230Z,12.36
2019-02-14T10:44:07.107Z,13.13
2019-02-14T10:46:36.474Z,13.05
2019-02-14T10:49:06.498Z,11.78
2019-02-14T10:51:35.796Z,11.49
2019-02-14T10:54:08.627Z,12.75
2019-02-14T10:56:38.852Z,12.38
2019-02-14T10:59:10.629Z,12.51
2019-02-14T11:01:43.525Z,12.93
2019-02-14T11:04:12.897Z,12.94
2019-02-14T11:06:42.672Z,13.32
2019-02-14T11:09:13.184Z,13.61
2019-02-14T11:11:46.301Z,13.57
2019-02-14T11:14:17.976Z,13.24
2019-02-14T11:16:47.377Z,13.69
2019-02-14T11:19:19.703Z,14.00
2019-02-14T11:21:58.024Z,13.63
2019-02-14T11:24:27.475Z,13.41
2019-02-14T11:27:03.149Z,14.28
2019-02-14T11:29:35.437Z,14.36
2019-02-14T11:32:05.255Z,14.41
2019-02-14T11:34:39.314Z,14.63
2019-02-14T11:37:13.160Z,14.85
2019-02-14T11:39:45.799Z,15.08
2019-02-14T11:42:19.135Z,14.77
2019-02-14T11:44:51.880Z,14.97
2019-02-14T11:47:20.995Z,15.37
2019-02-14T11:49:52.263Z,14.84
2019-02-14T11:52:21.708Z,15.41
2019-02-14T11:54:51.126Z,15.51
2019-02-14T11:57:22.643Z,15.68
2019-02-14T11:59:56.563Z,15.71
2019-02-14T12:02:29.437Z,15.86
2019-02-14T12:05:06.562Z,15.92
2019-02-14T12:07:35.749Z,15.13
2019-02-14T12:10:15.889Z,15.37
2019-02-14T12:12:47.001Z,15.52
2019-02-14T12:15:16.774Z,13.14
2019-02-14T12:17:45.935Z,15.28
2019-02-14T12:20:16.981Z,15.54
2019-02-14T12:22:49.966Z,15.76
2019-02-14T12:25:19.160Z,15.87
2019-02-14T12:27:48.818Z,15.89
2019-02-14T12:30:19.367Z,15.90
2019-02-14T12:32:51.155Z,15.48
2019-02-14T12:35:21.657Z,14.96
2019-02-14T12:37:54.066Z,15.07
2019-02-14T12:40:23.539Z,15.04
2019-02-14T12:42:56.949Z,14.80
2019-02-14T12:45:26.326Z,14.89
2019-02-14T12:47:58.622Z,14.81
2019-02-14T12:50:27.785Z,15.44
2019-02-14T12:53:02.668Z,15.17
2019-02-14T12:55:32.944Z,14.97
2019-02-14T12:58:02.248Z,6.80
2019-02-14T13:00:32.081Z,15.62
2019-02-14T13:03:01.363Z,16.09
2019-02-14T13:05:32.950Z,16.22
2019-02-14T13:08:04.064Z,16.11
2019-02-14T13:10:33.256Z,16.19
2019-02-14T13:13:04.952Z,16.86
2019-02-14T13:15:34.114Z,17.87
2019-02-14T13:18:04.349Z,18.14
2019-02-14T13:20:33.533Z,18.04
2019-02-14T13:23:02.830Z,17.85
2019-02-14T13:25:32.494Z,17.88
2019-02-14T13:28:01.930Z,17.81
2019-02-14T13:30:33.577Z,17.88
2019-02-14T13:33:02.795Z,17.53
2019-02-14T13:35:33.735Z,17.34
2019-02-14T13:38:05.482Z,17.21
2019-02-14T13:40:34.771Z,16.96
2019-02-14T13:43:07.362Z,17.00
2019-02-14T13:45:41.444Z,16.54
2019-02-14T13:48:13.711Z,16.74
2019-02-14T13:50:42.903Z,16.87
2019-02-14T13:53:12.106Z,17.35
2019-02-14T13:55:57.154Z,17.29
2019-02-14T13:58:26.298Z,17.26
2019-02-14T14:01:03.291Z,17.18
2019-02-14T14:03:34.901Z,16.67
2019-02-14T14:06:08.563Z,16.58
2019-02-14T14:08:41.985Z,16.35
2019-02-14T14:11:16.823Z,16.36
2019-02-14T14:13:54.496Z,16.27
2019-02-14T14:16:26.760Z,16.69
2019-02-14T14:19:05.936Z,16.90
2019-02-14T14:21:30.629Z,16.42
2019-02-14T14:24:00.142Z,16.47
2019-02-14T14:26:34.471Z,16.58
2019-02-14T14:29:13.528Z,16.54
2019-02-14T14:31:43.171Z,16.95
2019-02-14T14:34:14.016Z,16.95
2019-02-14T14:36:50.391Z,16.64
2019-02-14T14:39:26.311Z,17.09
2019-02-14T14:41:56.486Z,17.29
2019-02-14T14:44:41.934Z,17.31
2019-02-14T14:47:17.545Z,17.66
2019-02-14T14:49:48.725Z,17.66
2019-02-14T14:52:20.937Z,17.61
2019-02-14T14:54:53.102Z,17.51
2019-02-14T14:57:22.351Z,17.00
2019-02-14T14:59:55.993Z,16.92
2019-02-14T15:02:25.749Z,17.23
2019-02-14T15:04:55.476Z,17.14
2019-02-14T15:07:24.585Z,17.01
2019-02-14T15:09:57.505Z,16.79
2019-02-14T15:12:26.312Z,16.44
2019-02-14T15:14:56.002Z,16.22
2019-02-14T15:17:26.432Z,16.37
2019-02-14T15:19:58.018Z,16.58
2019-02-14T15:22:27.183Z,16.49
2019-02-14T15:24:57.620Z,16.10
2019-02-14T15:27:26.752Z,15.69
2019-02-14T15:29:57.431Z,15.48
2019-02-14T15:32:26.637Z,14.96
2019-02-14T15:34:55.898Z,14.70
2019-02-14T15:37:30.728Z,14.44
2019-02-14T15:40:08.710Z,14.59
2019-02-14T15:42:31.546Z,14.59
2019-02-14T15:45:00.705Z,14.65
2019-02-14T15:47:31.713Z,14.51
2019-02-14T15:50:03.874Z,14.42
2019-02-14T15:52:34.870Z,14.39
2019-02-14T15:55:04.025Z,14.33
2019-02-14T15:57:34.454Z,14.32
2019-02-14T16:00:10.716Z,14.32
2019-02-14T16:02:40.151Z,14.36
2019-02-14T16:05:10.670Z,14.22
2019-02-14T16:07:41.462Z,14.12
2019-02-14T16:10:18.165Z,13.70
2019-02-14T16:12:43.989Z,13.82
2019-02-14T16:15:15.454Z,13.80
2019-02-14T16:17:44.609Z,13.94
2019-02-14T16:20:17.521Z,13.74
2019-02-14T16:22:50.694Z,13.60
2019-02-14T16:25:20.199Z,13.55
2019-02-14T16:27:51.882Z,13.21
2019-02-14T16:30:21.042Z,13.32
2019-02-14T16:32:50.271Z,13.30
2019-02-14T16:35:20.983Z,13.09
2019-02-14T16:37:52.000Z,12.97
2019-02-14T16:40:27.820Z,12.83
2019-02-14T16:42:53.642Z,12.68
2019-02-14T16:45:26.945Z,12.83
2019-02-14T16:47:59.263Z,12.90
2019-02-14T16:50:29.425Z,12.89
2019-02-14T16:52:59.137Z,13.01
2019-02-14T16:55:29.634Z,13.26
2019-02-14T16:57:59.030Z,13.13
2019-02-14T17:00:33.313Z,13.06
2019-02-14T17:03:05.177Z,13.15
2019-02-14T17:05:54.660Z,12.63
2019-02-14T17:08:24.016Z,12.71
2019-02-14T17:10:56.781Z,12.89
2019-02-14T17:13:25.914Z,13.12
2019-02-14T17:15:55.062Z,12.95
2019-02-14T17:18:25.514Z,12.94
2019-02-14T17:20:54.599Z,12.93
2019-02-14T17:23:25.907Z,12.76
2019-02-14T17:26:08.270Z,12.65
2019-02-14T17:28:37.816Z,12.58
2019-02-14T17:31:08.061Z,12.74
2019-02-14T17:33:46.430Z,12.76
2019-02-14T17:36:15.733Z,12.76
2019-02-14T17:38:44.866Z,12.34
2019-02-14T17:41:14.325Z,12.40
2019-02-14T17:43:43.566Z,12.45
2019-02-14T17:46:12.935Z,12.09
2019-02-14T17:48:46.137Z,12.07
2019-02-14T17:51:22.541Z,12.22
2019-02-14T17:53:58.888Z,11.76
2019-02-14T17:56:28.408Z,11.86
2019-02-14T17:58:58.819Z,11.89
2019-02-14T18:01:28.060Z,12.03
2019-02-14T18:03:58.498Z,11.85
2019-02-14T18:06:29.705Z,11.11
2019-02-14T18:09:04.683Z,11.44
2019-02-14T18:11:34.120Z,11.36
2019-02-14T18:14:06.392Z,11.40
2019-02-14T18:16:35.531Z,11.36
2019-02-14T18:19:16.532Z,11.27
2019-02-14T18:21:45.722Z,11.36
2019-02-14T18:24:16.333Z,11.19
2019-02-14T18:26:51.605Z,10.93
2019-02-14T18:29:20.889Z,10.80
2019-02-14T18:31:51.321Z,10.38
2019-02-14T18:34:20.412Z,10.21
2019-02-14T18:36:49.996Z,10.71
2019-02-14T18:39:19.138Z,10.88
2019-02-14T18:41:48.312Z,11.05
2019-02-14T18:44:17.749Z,10.54
2019-02-14T18:46:47.933Z,10.84
2019-02-14T18:49:17.412Z,11.01
2019-02-14T18:51:46.603Z,10.86
2019-02-14T18:54:15.918Z,10.76
2019-02-14T18:56:47.604Z,10.86
2019-02-14T18:59:19.181Z,10.72
2019-02-14T19:01:48.421Z,10.68
2019-02-14T19:04:22.975Z,10.69
2019-02-14T19:06:56.520Z,10.80
2019-02-14T19:09:30.834Z,10.90
2019-02-14T19:12:00.007Z,10.46
2019-02-14T19:14:29.420Z,10.06
2019-02-14T19:17:01.268Z,10.42
2019-02-14T19:19:31.419Z,10.03
2019-02-14T19:22:05.531Z,9.94
2019-02-14T19:24:39.136Z,9.70
2019-02-14T19:27:08.289Z,9.67
2019-02-14T19:29:37.395Z,0.12
2019-02-14T19:32:07.831Z,9.99
2019-02-14T19:34:36.995Z,10.14
2019-02-14T19:37:12.869Z,9.78
2019-02-14T19:39:43.648Z,10.16
2019-02-14T19:42:14.714Z,10.21
2019-02-14T19:44:45.189Z,9.81
2019-02-14T19:47:14.757Z,9.46
2019-02-14T19:49:43.905Z,9.00
2019-02-14T19:52:13.240Z,9.48
2019-02-14T19:54:42.727Z,9.83
2019-02-14T19:57:12.014Z,9.79
2019-02-14T19:59:41.130Z,9.32
2019-02-14T20:02:10.326Z,8.56
2019-02-14T20:04:39.424Z,8.12
2019-02-14T20:07:13.020Z,7.86
2019-02-14T20:09:49.711Z,7.88
2019-02-14T20:12:20.879Z,7.58
2019-02-14T20:14:53.830Z,7.28
2019-02-14T20:17:22.970Z,7.80
2019-02-14T20:19:53.842Z,8.31
2019-02-14T20:22:23.082Z,8.68
2019-02-14T20:24:54.537Z,8.23
2019-02-14T20:27:26.685Z,7.84
2019-02-14T20:29:55.854Z,7.30
2019-02-14T20:32:26.274Z,6.72
2019-02-14T20:34:55.464Z,7.30
2019-02-14T20:37:27.806Z,7.45
2019-02-14T20:39:57.094Z,6.99
2019-02-14T20:42:26.221Z,7.71
2019-02-14T20:44:57.097Z,7.91
2019-02-14T20:47:28.321Z,8.00
2019-02-14T20:49:57.465Z,7.94
2019-02-14T20:52:28.977Z,8.23
2019-02-14T20:54:58.209Z,8.20
2019-02-14T20:57:32.554Z,8.68
2019-02-14T21:00:04.290Z,9.29
2019-02-14T21:02:44.070Z,8.73
2019-02-14T21:05:14.961Z,8.72
2019-02-14T21:07:52.130Z,8.26
2019-02-14T21:10:24.759Z,8.67
2019-02-14T21:12:53.902Z,8.68
2019-02-14T21:15:23.340Z,8.21
2019-02-14T21:17:53.286Z,7.57
2019-02-14T21:20:24.062Z,7.80
2019-02-14T21:22:53.207Z,7.70
2019-02-14T21:25:23.921Z,7.69
2019-02-14T21:27:54.247Z,8.52
2019-02-14T21:30:25.195Z,8.93
2019-02-14T21:32:57.244Z,8.81
2019-02-14T21:35:26.445Z,8.69
2019-02-14T21:37:55.565Z,-0.34
2019-02-14T21:40:26.563Z,8.08
2019-02-14T21:42:55.632Z,7.68
2019-02-14T21:45:24.752Z,2.38
2019-02-14T21:47:53.900Z,6.94
2019-02-14T21:50:24.280Z,7.03
2019-02-14T21:52:55.876Z,6.61
2019-02-14T21:55:25.033Z,6.26
2019-02-14T21:57:54.199Z,6.36
2019-02-14T22:00:23.375Z,6.52
2019-02-14T22:02:53.597Z,6.54
2019-02-14T22:05:26.657Z,6.60
2019-02-14T22:08:09.182Z,6.41
2019-02-14T22:10:41.177Z,6.67
2019-02-14T22:13:19.691Z,6.57
2019-02-14T22:15:49.907Z,6.80
2019-02-14T22:18:20.113Z,7.18
2019-02-14T22:20:53.974Z,7.20
2019-02-14T22:23:23.548Z,6.96
2019-02-14T22:25:52.702Z,7.77
2019-02-14T22:28:22.044Z,7.72
2019-02-14T22:30:57.188Z,7.65
2019-02-14T22:33:29.896Z,7.27
2019-02-14T22:35:59.033Z,7.42
2019-02-14T22:38:29.430Z,7.86
2019-02-14T22:41:04.094Z,8.38
2019-02-14T22:43:35.246Z,8.53
2019-02-14T22:46:05.591Z,8.87
2019-02-14T22:48:39.028Z,8.76
2019-02-14T22:51:11.241Z,8.45
2019-02-14T22:53:40.457Z,7.84
2019-02-14T22:56:11.322Z,8.21
2019-02-14T22:58:43.615Z,8.09
2019-02-14T23:01:14.404Z,8.29
2019-02-14T23:03:43.977Z,8.08
2019-02-14T23:06:16.799Z,8.05
2019-02-14T23:08:45.840Z,7.38
2019-02-14T23:11:15.697Z,7.21
2019-02-14T23:13:44.829Z,7.48
2019-02-14T23:16:13.918Z,-1.12
2019-02-14T23:18:42.978Z,6.92
2019-02-14T23:21:12.099Z,6.91
2019-02-14T23:23:41.415Z,6.41
2019-02-14T23:26:10.443Z,6.73
2019-02-14T23:28:40.653Z,6.39
2019-02-14T23:31:16.203Z,6.35
2019-02-14T23:33:48.385Z,6.33
2019-02-14T23:36:17.397Z,6.36
2019-02-14T23:38:46.457Z,6.05
2019-02-14T23:41:15.790Z,6.20
2019-02-14T23:43:46.013Z,5.77
2019-02-14T23:46:16.207Z,5.70
2019-02-14T23:48:46.840Z,5.49
2019-02-14T23:51:15.896Z,5.66
2019-02-14T23:53:44.902Z,5.65
2019-02-14T23:56:14.819Z,5.69
2019-02-14T23:58:48.502Z,6.11
